createdAt,value
2018-08-31T00:01:58.824Z,100537.05
2018-08-31T00:05:38.077Z,100535.84
2018-08-31T00:09:16.942Z,100541.45
2018-08-31T00:11:57.736Z,100539.96
2018-08-31T00:14:27.623Z,100539.72
2018-08-31T00:16:57.315Z,100546.78
2018-08-31T00:19:27.028Z,100545.52
2018-08-31T00:21:56.680Z,100538.28
2018-08-31T00:24:37.394Z,100544.86
2018-08-31T00:27:18.004Z,100539.83
2018-08-31T00:29:58.632Z,100540.09
2018-08-31T00:33:10.949Z,100537.76
2018-08-31T00:37:55.460Z,100538.94
2018-08-31T00:40:51.344Z,100542.23
2018-08-31T00:43:30.245Z,100533.47
2018-08-31T00:46:00.021Z,100537.55
2018-08-31T00:48:29.704Z,100538.52
2018-08-31T00:50:59.508Z,100538.16
2018-08-31T00:53:29.184Z,100534.80
2018-08-31T00:55:58.860Z,100536.13
2018-08-31T00:58:28.579Z,100535.97
2018-08-31T01:00:58.299Z,100534.97
2018-08-31T01:03:27.980Z,100532.44
2018-08-31T01:05:57.676Z,100530.56
2018-08-31T01:08:27.440Z,100531.55
2018-08-31T01:10:57.107Z,100537.58
2018-08-31T01:13:26.891Z,100529.90
2018-08-31T01:15:56.680Z,100537.41
2018-08-31T01:18:26.340Z,100537.89
2018-08-31T01:20:55.997Z,100530.19
2018-08-31T01:23:25.681Z,100529.22
2018-08-31T01:25:55.336Z,100536.66
2018-08-31T01:28:25.060Z,100526.29
2018-08-31T01:30:54.721Z,100532.84
2018-08-31T01:33:24.384Z,100531.84
2018-08-31T01:35:54.095Z,100534.50
2018-08-31T01:38:23.843Z,100533.45
2018-08-31T01:40:53.508Z,100532.44
2018-08-31T01:43:23.228Z,100536.82
2018-08-31T01:45:52.879Z,100540.30
2018-08-31T01:48:22.542Z,100543.81
2018-08-31T01:50:57.389Z,100538.96
2018-08-31T01:53:29.071Z,100535.53
2018-08-31T01:55:58.789Z,100534.54
2018-08-31T01:58:28.440Z,100530.84
2018-08-31T02:00:58.180Z,100530.84
2018-08-31T02:03:27.835Z,100528.98
2018-08-31T02:05:57.508Z,100534.97
2018-08-31T02:08:27.213Z,100533.44
2018-08-31T02:10:56.875Z,100532.47
2018-08-31T02:13:26.621Z,100535.02
2018-08-31T02:15:56.291Z,100529.47
2018-08-31T02:18:25.968Z,100522.80
2018-08-31T02:20:55.644Z,100525.98
2018-08-31T02:23:25.354Z,100526.84
2018-08-31T02:25:55.032Z,100527.64
2018-08-31T02:28:24.812Z,100520.94
2018-08-31T02:30:54.523Z,100532.80
2018-08-31T02:33:24.239Z,100528.77
2018-08-31T02:35:53.912Z,100528.45
2018-08-31T02:38:23.621Z,100524.11
2018-08-31T02:40:53.285Z,100530.11
2018-08-31T02:43:23.076Z,100526.47
2018-08-31T02:45:52.776Z,100519.03
2018-08-31T02:48:22.436Z,100519.22
2018-08-31T02:50:52.140Z,100524.53
2018-08-31T02:53:21.808Z,100523.62
2018-08-31T02:55:51.524Z,100517.94
2018-08-31T02:58:21.192Z,100520.91
2018-08-31T03:00:50.896Z,100530.93
2018-08-31T03:03:20.572Z,100525.05
2018-08-31T03:05:50.302Z,100520.69
2018-08-31T03:08:20.182Z,100525.73
2018-08-31T03:10:49.908Z,100518.25
2018-08-31T03:13:19.636Z,100520.23
2018-08-31T03:15:49.366Z,100528.00
2018-08-31T03:18:19.055Z,100526.62
2018-08-31T03:20:48.736Z,100532.20
2018-08-31T03:23:18.440Z,100527.23
2018-08-31T03:25:48.122Z,100525.50
2018-08-31T03:28:17.781Z,100533.26
2018-08-31T03:30:47.547Z,100532.46
2018-08-31T03:33:17.227Z,100534.09
2018-08-31T03:35:46.918Z,100536.77
2018-08-31T03:38:16.644Z,100530.42
2018-08-31T03:40:46.336Z,100531.75
2018-08-31T03:43:16.008Z,100531.75
2018-08-31T03:45:45.716Z,100533.67
2018-08-31T03:48:15.385Z,100525.83
2018-08-31T03:50:45.089Z,100522.98
2018-08-31T03:53:14.753Z,100525.98
2018-08-31T03:55:44.428Z,100527.67
2018-08-31T03:58:14.111Z,100526.59
2018-08-31T04:00:43.796Z,100523.91
2018-08-31T04:03:14.686Z,100530.70
2018-08-31T04:05:44.352Z,100534.21
2018-08-31T04:08:14.036Z,100540.61
2018-08-31T04:10:43.710Z,100542.20
2018-08-31T04:13:13.432Z,100539.63
2018-08-31T04:15:43.117Z,100544.95
2018-08-31T04:18:12.873Z,100542.55
2018-08-31T04:20:42.556Z,100547.11
2018-08-31T04:23:12.304Z,100538.87
2018-08-31T04:25:41.952Z,100537.86
2018-08-31T04:28:11.640Z,100539.83
2018-08-31T04:30:41.329Z,100541.33
2018-08-31T04:33:11.021Z,100543.97
2018-08-31T04:35:40.677Z,100542.91
2018-08-31T04:38:10.380Z,100540.19
2018-08-31T04:40:40.125Z,100536.79
2018-08-31T04:43:09.830Z,100537.03
2018-08-31T04:45:39.538Z,100540.19
2018-08-31T04:48:09.256Z,100539.59
2018-08-31T04:50:38.924Z,100538.84
2018-08-31T04:53:08.614Z,100536.36
2018-08-31T04:55:38.305Z,100536.79
2018-08-31T04:58:08.024Z,100538.09
2018-08-31T05:00:37.704Z,100544.00
2018-08-31T05:03:07.400Z,100545.73
2018-08-31T05:05:37.122Z,100539.95
2018-08-31T05:08:06.855Z,100542.11
2018-08-31T05:10:36.674Z,100549.35
2018-08-31T05:13:06.525Z,100548.53
2018-08-31T05:15:36.183Z,100545.67
2018-08-31T05:18:05.844Z,100544.80
2018-08-31T05:20:35.512Z,100545.63
2018-08-31T05:23:05.276Z,100551.00
2018-08-31T05:25:34.973Z,100553.16
2018-08-31T05:28:04.652Z,100550.17
2018-08-31T05:30:34.380Z,100548.42
2018-08-31T05:33:04.054Z,100551.07
2018-08-31T05:35:33.723Z,100554.80
2018-08-31T05:38:03.411Z,100557.67
2018-08-31T05:40:33.064Z,100558.44
2018-08-31T05:43:02.716Z,100561.84
2018-08-31T05:45:32.365Z,100558.06
2018-08-31T05:48:02.064Z,100558.12
2018-08-31T05:50:31.727Z,100556.64
2018-08-31T05:53:01.403Z,100551.66
2018-08-31T05:55:31.097Z,100559.44
2018-08-31T05:58:00.784Z,100561.17
2018-08-31T06:00:30.601Z,100567.02
2018-08-31T06:03:00.326Z,100568.42
2018-08-31T06:05:30.023Z,100569.28
2018-08-31T06:07:59.692Z,100576.53
2018-08-31T06:10:29.387Z,100573.53
2018-08-31T06:12:59.165Z,100569.47
2018-08-31T06:15:28.851Z,100581.41
2018-08-31T06:17:58.519Z,100587.01
2018-08-31T06:20:28.437Z,100588.02
2018-08-31T06:22:58.152Z,100589.03
2018-08-31T06:25:27.905Z,100591.19
2018-08-31T06:27:57.592Z,100594.05
2018-08-31T06:30:27.262Z,100598.00
2018-08-31T06:32:57.047Z,100602.03
2018-08-31T06:35:26.720Z,100596.95
2018-08-31T06:37:56.398Z,100602.70
2018-08-31T06:40:26.100Z,100604.27
2018-08-31T06:42:55.772Z,100602.59
2018-08-31T06:45:25.436Z,100605.12
2018-08-31T06:47:55.128Z,100598.42
2018-08-31T06:50:24.836Z,100598.31
2018-08-31T06:52:54.525Z,100595.30
2018-08-31T06:55:24.244Z,100598.34
2018-08-31T06:57:53.908Z,100601.20
2018-08-31T07:00:23.567Z,100600.55
2018-08-31T07:02:53.265Z,100597.70
2018-08-31T07:05:22.924Z,100595.35
2018-08-31T07:07:52.684Z,100606.76
2018-08-31T07:10:22.392Z,100604.42
2018-08-31T07:12:52.083Z,100608.12
2018-08-31T07:15:22.140Z,100602.44
2018-08-31T07:17:51.812Z,100608.99
2018-08-31T07:20:21.468Z,100602.27
2018-08-31T07:22:51.136Z,100606.99
2018-08-31T07:25:20.868Z,100610.52
2018-08-31T07:27:50.543Z,100612.38
2018-08-31T07:30:20.196Z,100614.06
2018-08-31T07:32:49.924Z,100613.23
2018-08-31T07:35:19.571Z,100608.85
2018-08-31T07:37:49.272Z,100606.16
2018-08-31T07:40:18.928Z,100605.98
2018-08-31T07:42:48.645Z,100604.50
2018-08-31T07:45:18.303Z,100615.94
2018-08-31T07:47:47.992Z,100621.33
2018-08-31T07:50:17.731Z,100621.83
2018-08-31T07:52:47.396Z,100630.59
2018-08-31T07:55:17.072Z,100634.44
2018-08-31T07:57:46.727Z,100639.85
2018-08-31T08:00:16.400Z,100638.66
2018-08-31T08:02:46.124Z,100642.54
2018-08-31T08:05:15.789Z,100637.80
2018-08-31T08:07:45.436Z,100639.80
2018-08-31T08:10:15.131Z,100638.98
2018-08-31T08:12:44.798Z,100648.73
2018-08-31T08:15:14.476Z,100644.70
2018-08-31T08:17:44.136Z,100647.53
2018-08-31T08:20:13.827Z,100648.72
2018-08-31T08:22:43.472Z,100647.53
2018-08-31T08:25:13.208Z,100646.84
2018-08-31T08:27:42.921Z,100650.52
2018-08-31T08:30:12.581Z,100653.17
2018-08-31T08:32:42.260Z,100654.66
2018-08-31T08:35:11.988Z,100657.49
2018-08-31T08:37:41.849Z,100650.76
2018-08-31T08:40:11.571Z,100658.80
2018-08-31T08:42:41.285Z,100659.80
2018-08-31T08:45:10.997Z,100662.77
2018-08-31T08:47:40.677Z,100662.19
2018-08-31T08:50:10.390Z,100666.34
2018-08-31T08:52:40.113Z,100659.19
2018-08-31T08:55:09.803Z,100658.27
2018-08-31T08:57:39.514Z,100657.45
2018-08-31T09:00:09.288Z,100655.45
2018-08-31T09:02:38.989Z,100658.84
2018-08-31T09:05:08.731Z,100651.03
2018-08-31T09:07:38.412Z,100647.17
2018-08-31T09:10:08.156Z,100641.95
2018-08-31T09:12:37.796Z,100647.65
2018-08-31T09:15:07.629Z,100636.63
2018-08-31T09:17:37.394Z,100642.11
2018-08-31T09:20:07.242Z,100639.59
2018-08-31T09:22:37.223Z,100641.60
2018-08-31T09:25:07.005Z,100637.67
2018-08-31T09:27:36.714Z,100637.28
2018-08-31T09:30:07.248Z,100631.80
2018-08-31T09:32:37.009Z,100630.05
2018-08-31T09:35:06.984Z,100630.55
2018-08-31T09:37:36.679Z,100631.77
2018-08-31T09:40:06.416Z,100626.31
2018-08-31T09:42:36.129Z,100626.80
2018-08-31T09:45:05.844Z,100626.27
2018-08-31T09:47:35.640Z,100622.24
2018-08-31T09:50:05.669Z,100622.73
2018-08-31T09:52:35.364Z,100615.38
2018-08-31T09:55:05.212Z,100620.03
2018-08-31T09:57:35.083Z,100618.72
2018-08-31T10:00:05.100Z,100615.34
2018-08-31T10:02:40.176Z,100612.52
2018-08-31T10:05:09.836Z,100610.66
2018-08-31T10:07:39.520Z,100609.83
2018-08-31T10:10:09.339Z,100605.02
2018-08-31T10:12:39.112Z,100602.31
2018-08-31T10:15:08.795Z,100604.80
2018-08-31T10:17:38.541Z,100602.79
2018-08-31T10:20:08.272Z,100611.59
2018-08-31T10:22:37.948Z,100604.19
2018-08-31T10:25:07.672Z,100604.36
2018-08-31T10:27:37.348Z,100606.30
2018-08-31T10:30:08.027Z,100602.50
2018-08-31T10:32:37.736Z,100598.13
2018-08-31T10:35:07.553Z,100598.73
2018-08-31T10:37:37.249Z,100602.34
2018-08-31T10:40:07.039Z,100603.80
2018-08-31T10:42:36.721Z,100605.44
2018-08-31T10:45:07.437Z,100603.00
2018-08-31T10:47:37.360Z,100600.50
2018-08-31T10:50:08.533Z,100600.17
2018-08-31T10:52:38.233Z,100597.74
2018-08-31T10:55:08.161Z,100595.14
2018-08-31T10:57:38.064Z,100599.89
2018-08-31T11:00:07.891Z,100593.50
2018-08-31T11:02:37.660Z,100597.52
2018-08-31T11:05:07.397Z,100594.91
2018-08-31T11:07:37.076Z,100592.03
2018-08-31T11:10:07.512Z,100591.05
2018-08-31T11:12:37.359Z,100590.59
2018-08-31T11:15:07.095Z,100596.05
2018-08-31T11:17:36.784Z,100594.04
2018-08-31T11:20:06.544Z,100597.59
2018-08-31T11:22:36.292Z,100592.86
2018-08-31T11:25:06.056Z,100595.44
2018-08-31T11:27:35.837Z,100595.41
2018-08-31T11:30:05.655Z,100592.50
2018-08-31T11:32:35.664Z,100592.23
2018-08-31T11:35:05.635Z,100592.47
2018-08-31T11:37:35.319Z,100578.38
2018-08-31T11:40:05.192Z,100584.23
2018-08-31T11:42:34.856Z,100584.53
2018-08-31T11:45:04.552Z,100581.85
2018-08-31T11:47:34.240Z,100576.70
2018-08-31T11:50:04.004Z,100571.05
2018-08-31T11:52:33.669Z,100577.83
2018-08-31T11:55:03.477Z,100575.61
2018-08-31T11:57:33.177Z,100575.45
2018-08-31T12:00:02.896Z,100567.32
2018-08-31T12:02:32.608Z,100569.72
2018-08-31T12:05:02.388Z,100569.70
2018-08-31T12:07:32.066Z,100562.20
2018-08-31T12:10:01.728Z,100568.35
2018-08-31T12:12:31.465Z,100561.57
2018-08-31T12:15:01.192Z,100566.37
2018-08-31T12:17:30.896Z,100562.66
2018-08-31T12:20:00.593Z,100564.19
2018-08-31T12:22:30.297Z,100564.61
2018-08-31T12:25:00.083Z,100561.36
2018-08-31T12:27:29.802Z,100556.45
2018-08-31T12:29:59.508Z,100567.43
2018-08-31T12:32:29.227Z,100567.95
2018-08-31T12:34:58.984Z,100567.81
2018-08-31T12:37:28.724Z,100569.11
2018-08-31T12:39:58.400Z,100567.85
2018-08-31T12:42:28.140Z,100565.90
2018-08-31T12:44:57.789Z,100561.35
2018-08-31T12:47:27.464Z,100557.67
2018-08-31T12:49:57.192Z,100555.41
2018-08-31T12:52:26.992Z,100550.78
2018-08-31T12:54:56.684Z,100548.22
2018-08-31T12:57:26.433Z,100557.33
2018-08-31T12:59:59.205Z,100562.87
2018-08-31T13:02:30.425Z,100555.14
2018-08-31T13:05:00.404Z,100560.72
2018-08-31T13:07:30.139Z,100557.09
2018-08-31T13:09:59.861Z,100548.17
2018-08-31T13:12:29.555Z,100556.72
2018-08-31T13:14:59.292Z,100544.23
2018-08-31T13:17:28.964Z,100560.79
2018-08-31T13:19:58.775Z,100556.84
2018-08-31T13:22:28.441Z,100551.94
2018-08-31T13:24:58.159Z,100548.48
2018-08-31T13:27:27.951Z,100553.78
2018-08-31T13:29:57.659Z,100549.27
2018-08-31T13:32:27.316Z,100541.19
2018-08-31T13:34:57.014Z,100539.59
2018-08-31T13:37:26.747Z,100541.50
2018-08-31T13:39:56.448Z,100532.17
2018-08-31T13:42:26.253Z,100537.30
2018-08-31T13:44:55.948Z,100532.88
2018-08-31T13:47:25.724Z,100532.91
2018-08-31T13:49:55.436Z,100533.16
2018-08-31T13:52:25.120Z,100532.66
2018-08-31T13:54:55.180Z,100530.67
2018-08-31T13:57:24.896Z,100536.06
2018-08-31T13:59:54.576Z,100530.19
2018-08-31T14:02:24.364Z,100533.62
2018-08-31T14:04:54.069Z,100531.63
2018-08-31T14:07:23.753Z,100532.95
2018-08-31T14:09:53.452Z,100537.14
2018-08-31T14:12:23.210Z,100542.20
2018-08-31T14:14:52.888Z,100539.21
2018-08-31T14:17:22.600Z,100539.27
2018-08-31T14:19:52.287Z,100541.11
2018-08-31T14:22:21.969Z,100533.91
2018-08-31T14:24:51.752Z,100532.98
2018-08-31T14:27:21.408Z,100532.13
2018-08-31T14:29:51.274Z,100536.30
2018-08-31T14:32:20.812Z,100534.56
2018-08-31T14:34:50.530Z,100534.70
2018-08-31T14:37:20.228Z,100539.78
2018-08-31T14:39:49.914Z,100539.22
2018-08-31T14:42:19.604Z,100536.94
2018-08-31T14:44:49.281Z,100529.53
2018-08-31T14:47:19.001Z,100536.98
2018-08-31T14:49:48.686Z,100529.84
2018-08-31T14:52:18.439Z,100536.62
2018-08-31T14:54:48.120Z,100536.06
2018-08-31T14:57:17.796Z,100537.05
2018-08-31T14:59:47.492Z,100537.80
2018-08-31T15:02:17.203Z,100534.55
2018-08-31T15:04:46.837Z,100544.45
2018-08-31T15:07:16.540Z,100543.94
2018-08-31T15:09:46.218Z,100544.92
2018-08-31T15:12:15.855Z,100542.97
2018-08-31T15:14:45.565Z,100540.88
2018-08-31T15:17:15.260Z,100532.84
2018-08-31T15:19:44.912Z,100535.30
2018-08-31T15:22:14.618Z,100534.48
2018-08-31T15:24:44.303Z,100536.84
2018-08-31T15:27:13.964Z,100543.80
2018-08-31T15:29:43.680Z,100539.94
2018-08-31T15:32:13.332Z,100540.74
2018-08-31T15:34:43.016Z,100544.01
2018-08-31T15:37:12.942Z,100547.73
2018-08-31T15:39:42.660Z,100542.15
2018-08-31T15:42:12.403Z,100546.59
2018-08-31T15:44:42.761Z,100546.86
2018-08-31T15:47:12.436Z,100547.08
2018-08-31T15:49:42.213Z,100550.18
2018-08-31T15:52:11.829Z,100546.29
2018-08-31T15:54:41.512Z,100550.91
2018-08-31T15:57:11.216Z,100547.19
2018-08-31T15:59:40.883Z,100539.78
2018-08-31T16:02:10.584Z,100547.51
2018-08-31T16:04:40.367Z,100550.55
2018-08-31T16:07:10.042Z,100552.53
2018-08-31T16:09:39.747Z,100546.27
2018-08-31T16:12:09.557Z,100547.31
2018-08-31T16:14:39.247Z,100545.99
2018-08-31T16:17:08.957Z,100552.27
2018-08-31T16:19:38.671Z,100546.25
2018-08-31T16:22:08.461Z,100545.91
2018-08-31T16:24:38.172Z,100549.79
2018-08-31T16:27:07.890Z,100550.65
2018-08-31T16:29:37.568Z,100551.98
2018-08-31T16:32:07.393Z,100549.38
2018-08-31T16:34:37.073Z,100555.64
2018-08-31T16:37:06.820Z,100549.17
2018-08-31T16:39:36.513Z,100558.14
2018-08-31T16:42:06.323Z,100557.21
2018-08-31T16:44:35.981Z,100561.59
2018-08-31T16:47:05.892Z,100561.75
2018-08-31T16:49:35.568Z,100559.56
2018-08-31T16:52:05.292Z,100561.63
2018-08-31T16:54:34.968Z,100564.53
2018-08-31T16:57:04.698Z,100555.52
2018-08-31T16:59:34.490Z,100561.43
2018-08-31T17:02:04.282Z,100563.81
2018-08-31T17:04:33.972Z,100563.91
2018-08-31T17:07:03.664Z,100569.66
2018-08-31T17:09:33.476Z,100570.05
2018-08-31T17:12:03.153Z,100573.89
2018-08-31T17:14:32.832Z,100574.23
2018-08-31T17:17:02.878Z,100575.33
2018-08-31T17:19:32.500Z,100583.75
2018-08-31T17:22:02.242Z,100589.70
2018-08-31T17:24:31.907Z,100591.23
2018-08-31T17:27:06.784Z,100591.93
2018-08-31T17:29:40.602Z,100590.41
2018-08-31T17:32:15.536Z,100587.78
2018-08-31T17:34:50.289Z,100585.98
2018-08-31T17:37:25.155Z,100585.58
2018-08-31T17:39:55.272Z,100588.48
2018-08-31T17:42:25.372Z,100594.09
2018-08-31T17:44:55.025Z,100587.93
2018-08-31T17:47:24.753Z,100590.39
2018-08-31T17:49:54.512Z,100596.59
2018-08-31T17:52:24.197Z,100596.27
2018-08-31T17:54:53.964Z,100600.45
2018-08-31T17:57:23.652Z,100604.52
2018-08-31T17:59:53.369Z,100607.56
2018-08-31T18:02:23.048Z,100611.59
2018-08-31T18:04:52.734Z,100611.16
2018-08-31T18:07:22.459Z,100616.91
2018-08-31T18:09:52.141Z,100618.35
2018-08-31T18:12:21.924Z,100613.33
2018-08-31T18:14:51.636Z,100626.02
2018-08-31T18:17:21.314Z,100627.63
2018-08-31T18:19:51.104Z,100618.77
2018-08-31T18:22:20.789Z,100622.98
2018-08-31T18:24:50.482Z,100629.52
2018-08-31T18:27:20.608Z,100626.30
2018-08-31T18:29:50.275Z,100624.08
2018-08-31T18:32:19.972Z,100629.92
2018-08-31T18:34:49.629Z,100634.89
2018-08-31T18:37:19.353Z,100638.33
2018-08-31T18:39:49.070Z,100639.20
2018-08-31T18:42:18.800Z,100642.69
2018-08-31T18:44:48.628Z,100641.81
2018-08-31T18:47:18.368Z,100646.05
2018-08-31T18:49:48.656Z,100655.99
2018-08-31T18:52:18.457Z,100659.88
2018-08-31T18:54:48.150Z,100658.95
2018-08-31T18:57:17.816Z,100652.31
2018-08-31T18:59:47.513Z,100653.95
2018-08-31T19:02:17.463Z,100663.27
2018-08-31T19:04:47.180Z,100662.25
2018-08-31T19:07:16.877Z,100662.40
2018-08-31T19:09:46.542Z,100669.66
2018-08-31T19:12:16.276Z,100669.31
2018-08-31T19:14:45.956Z,100668.39
2018-08-31T19:17:15.616Z,100670.05
2018-08-31T19:19:45.313Z,100670.91
2018-08-31T19:22:15.020Z,100674.14
2018-08-31T19:24:44.728Z,100678.41
2018-08-31T19:27:14.424Z,100682.01
2018-08-31T19:29:44.113Z,100682.52
2018-08-31T19:32:13.784Z,100682.67
2018-08-31T19:34:43.440Z,100682.30
2018-08-31T19:37:13.200Z,100680.59
2018-08-31T19:39:42.883Z,100679.57
2018-08-31T19:42:12.547Z,100683.46
2018-08-31T19:44:42.276Z,100678.23
2018-08-31T19:47:11.961Z,100680.41
2018-08-31T19:49:41.620Z,100680.05
2018-08-31T19:52:11.422Z,100677.55
2018-08-31T19:54:41.117Z,100680.42
2018-08-31T19:57:10.817Z,100684.45
2018-08-31T19:59:40.505Z,100684.78
2018-08-31T20:02:10.240Z,100687.84
2018-08-31T20:04:39.966Z,100691.25
2018-08-31T20:07:09.688Z,100689.75
2018-08-31T20:09:39.370Z,100698.36
2018-08-31T20:12:09.048Z,100701.53
2018-08-31T20:14:38.796Z,100704.23
2018-08-31T20:17:08.540Z,100704.94
2018-08-31T20:19:38.224Z,100706.30
2018-08-31T20:22:10.864Z,100710.84
2018-08-31T20:24:40.692Z,100713.55
2018-08-31T20:27:10.403Z,100704.96
2018-08-31T20:29:40.116Z,100712.53
2018-08-31T20:32:09.860Z,100722.14
2018-08-31T20:34:39.555Z,100733.44
2018-08-31T20:37:09.236Z,100732.06
2018-08-31T20:39:38.916Z,100736.28
2018-08-31T20:42:08.597Z,100738.29
2018-08-31T20:44:38.236Z,100736.77
2018-08-31T20:47:07.985Z,100743.49
2018-08-31T20:49:37.769Z,100743.16
2018-08-31T20:52:07.500Z,100742.33
2018-08-31T20:54:37.180Z,100749.23
2018-08-31T20:57:06.892Z,100749.92
2018-08-31T20:59:36.597Z,100749.05
2018-08-31T21:02:06.407Z,100758.47
2018-08-31T21:04:36.143Z,100754.61
2018-08-31T21:07:06.031Z,100748.70
2018-08-31T21:09:35.701Z,100749.88
2018-08-31T21:12:05.460Z,100749.16
2018-08-31T21:14:35.107Z,100753.73
2018-08-31T21:17:04.804Z,100752.88
2018-08-31T21:19:34.515Z,100750.01
2018-08-31T21:22:04.200Z,100754.35
2018-08-31T21:24:33.859Z,100757.85
2018-08-31T21:27:03.569Z,100753.45
2018-08-31T21:29:33.256Z,100754.44
2018-08-31T21:32:02.949Z,100758.17
2018-08-31T21:34:32.935Z,100759.45
2018-08-31T21:37:02.585Z,100762.52
2018-08-31T21:39:33.361Z,100763.19
2018-08-31T21:42:03.073Z,100769.73
2018-08-31T21:44:32.724Z,100767.88
2018-08-31T21:47:03.020Z,100771.63
2018-08-31T21:49:32.740Z,100768.61
2018-08-31T21:52:02.436Z,100763.86
2018-08-31T21:54:32.178Z,100761.16
2018-08-31T21:57:01.871Z,100770.11
2018-08-31T21:59:31.551Z,100770.77
2018-08-31T22:02:01.300Z,100767.41
2018-08-31T22:04:30.984Z,100768.86
2018-08-31T22:07:00.668Z,100768.84
2018-08-31T22:09:30.402Z,100765.45
2018-08-31T22:12:00.068Z,100764.95
2018-08-31T22:14:29.768Z,100770.31
2018-08-31T22:16:59.491Z,100773.47
2018-08-31T22:19:29.152Z,100774.14
2018-08-31T22:21:58.865Z,100771.92
2018-08-31T22:24:28.532Z,100772.06
2018-08-31T22:26:58.286Z,100780.20
2018-08-31T22:29:27.943Z,100780.80
2018-08-31T22:31:57.605Z,100777.73
2018-08-31T22:34:27.359Z,100776.93
2018-08-31T22:36:56.979Z,100778.56
2018-08-31T22:39:26.664Z,100777.96
2018-08-31T22:41:56.404Z,100782.37
2018-08-31T22:44:26.111Z,100780.64
2018-08-31T22:46:55.784Z,100779.23
2018-08-31T22:49:25.456Z,100775.14
2018-08-31T22:51:55.119Z,100776.25
2018-08-31T22:54:24.799Z,100776.60
2018-08-31T22:56:54.444Z,100773.44
2018-08-31T22:59:24.155Z,100771.44
2018-08-31T23:01:53.821Z,100778.66
2018-08-31T23:04:23.472Z,100777.52
2018-08-31T23:06:53.188Z,100778.02
2018-08-31T23:09:22.928Z,100780.89
2018-08-31T23:11:52.652Z,100777.19
2018-08-31T23:14:22.352Z,100778.34
2018-08-31T23:16:52.051Z,100775.98
2018-08-31T23:19:21.719Z,100778.31
2018-08-31T23:21:51.418Z,100780.71
2018-08-31T23:24:21.072Z,100778.34
2018-08-31T23:26:50.715Z,100777.45
2018-08-31T23:29:20.404Z,100778.84
2018-08-31T23:31:50.039Z,100772.97
2018-08-31T23:34:19.787Z,100781.77
2018-08-31T23:36:49.468Z,100777.34
2018-08-31T23:39:19.148Z,100777.06
2018-08-31T23:41:48.856Z,100776.74
2018-08-31T23:44:18.546Z,100777.70
2018-08-31T23:46:48.380Z,100774.03
2018-08-31T23:49:18.041Z,100772.17
2018-08-31T23:51:47.728Z,100777.34
2018-08-31T23:54:17.407Z,100782.00
2018-08-31T23:56:47.170Z,100778.86
2018-08-31T23:59:16.851Z,100781.39
